sensor_id;sensor_type;location;lat;lon;timestamp;pressure;altitude;pressure_sealevel;temperature;humidity
29903;BME280;30288;50.514;9.678;2023-05-16T00:00:09;98427.00;;;9.63;100.00
29903;BME280;30288;50.514;9.678;2023-05-16T00:02:14;98431.19;;;9.64;100.00
29903;BME280;30288;50.514;9.678;2023-05-16T00:04:20;98428.72;;;9.61;100.00
29903;BME280;30288;50.514;9.678;2023-05-16T00:06:26;98421.13;;;9.64;100.00
29903;BME280;30288;50.514;9.678;2023-05-16T00:08:33;98432.03;;;9.63;100.00
29903;BME280;30288;50.514;9.678;2023-05-16T00:10:38;98428.59;;;9.66;100.00
29903;BME280;30288;50.514;9.678;2023-05-16T00:12:46;98421.13;;;9.64;100.00
29903;BME280;30288;50.514;9.678;2023-05-16T00:14:53;98424.66;;;9.57;100.00
29903;BME280;30288;50.514;9.678;2023-05-16T00:16:58;98417.44;;;9.47;100.00
29903;BME280;30288;50.514;9.678;2023-05-16T00:19:13;98420.28;;;9.35;100.00
29903;BME280;30288;50.514;9.678;2023-05-16T00:21:18;98416.97;;;9.34;100.00
29903;BME280;30288;50.514;9.678;2023-05-16T00:23:24;98415.56;;;9.24;100.00
29903;BME280;30288;50.514;9.678;2023-05-16T00:25:30;98415.81;;;9.15;100.00
29903;BME280;30288;50.514;9.678;2023-05-16T00:27:35;98416.06;;;9.06;100.00
29903;BME280;30288;50.514;9.678;2023-05-16T00:29:43;98423.19;;;8.90;100.00
29903;BME280;30288;50.514;9.678;2023-05-16T00:31:49;98416.47;;;8.91;100.00
29903;BME280;30288;50.514;9.678;2023-05-16T00:33:54;98415.78;;;8.84;100.00
29903;BME280;30288;50.514;9.678;2023-05-16T00:35:59;98411.69;;;8.82;100.00
29903;BME280;30288;50.514;9.678;2023-05-16T00:38:04;98407.78;;;8.70;100.00
29903;BME280;30288;50.514;9.678;2023-05-16T00:40:10;98410.41;;;8.67;100.00
29903;BME280;30288;50.514;9.678;2023-05-16T00:42:18;98413.66;;;8.70;100.00
29903;BME280;30288;50.514;9.678;2023-05-16T00:44:24;98410.44;;;8.65;100.00
29903;BME280;30288;50.514;9.678;2023-05-16T00:46:32;98423.19;;;8.58;100.00
29903;BME280;30288;50.514;9.678;2023-05-16T00:48:37;98427.50;;;8.51;100.00
29903;BME280;30288;50.514;9.678;2023-05-16T00:50:43;98428.50;;;8.46;100.00
29903;BME280;30288;50.514;9.678;2023-05-16T00:52:48;98429.72;;;8.28;100.00
29903;BME280;30288;50.514;9.678;2023-05-16T00:54:54;98436.53;;;8.23;100.00
29903;BME280;30288;50.514;9.678;2023-05-16T00:56:59;98428.66;;;8.03;100.00
29903;BME280;30288;50.514;9.678;2023-05-16T00:59:04;98432.06;;;7.99;100.00
29903;BME280;30288;50.514;9.678;2023-05-16T01:01:10;98430.56;;;7.91;100.00
29903;BME280;30288;50.514;9.678;2023-05-16T01:03:18;98429.19;;;7.78;100.00
29903;BME280;30288;50.514;9.678;2023-05-16T01:05:23;98430.91;;;7.76;100.00
29903;BME280;30288;50.514;9.678;2023-05-16T01:07:29;98427.63;;;7.74;100.00
29903;BME280;30288;50.514;9.678;2023-05-16T01:09:34;98424.75;;;7.89;100.00
29903;BME280;30288;50.514;9.678;2023-05-16T01:11:50;98423.25;;;7.82;100.00
29903;BME280;30288;50.514;9.678;2023-05-16T01:14:07;98430.91;;;7.76;100.00
29903;BME280;30288;50.514;9.678;2023-05-16T01:16:21;98428.56;;;7.69;100.00
29903;BME280;30288;50.514;9.678;2023-05-16T01:18:40;98431.94;;;7.68;100.00
29903;BME280;30288;50.514;9.678;2023-05-16T01:20:54;98432.56;;;7.77;100.00
29903;BME280;30288;50.514;9.678;2023-05-16T01:23:22;98427.75;;;7.68;100.00
29903;BME280;30288;50.514;9.678;2023-05-16T01:25:53;98432.03;;;7.63;100.00
29903;BME280;30288;50.514;9.678;2023-05-16T01:28:04;98425.56;;;7.53;100.00
29903;BME280;30288;50.514;9.678;2023-05-16T01:30:15;98435.09;;;7.36;100.00
29903;BME280;30288;50.514;9.678;2023-05-16T01:32:21;98441.81;;;7.34;100.00
29903;BME280;30288;50.514;9.678;2023-05-16T01:34:26;98436.88;;;7.31;100.00
29903;BME280;30288;50.514;9.678;2023-05-16T01:36:37;98439.56;;;7.22;100.00
29903;BME280;30288;50.514;9.678;2023-05-16T01:38:55;98443.94;;;7.11;100.00
29903;BME280;30288;50.514;9.678;2023-05-16T01:41:11;98440.59;;;7.12;100.00
29903;BME280;30288;50.514;9.678;2023-05-16T01:43:29;98435.78;;;6.99;100.00
29903;BME280;30288;50.514;9.678;2023-05-16T01:45:44;98436.72;;;6.94;100.00
29903;BME280;30288;50.514;9.678;2023-05-16T01:47:57;98436.78;;;6.91;100.00
29903;BME280;30288;50.514;9.678;2023-05-16T01:50:09;98437.53;;;6.94;100.00
29903;BME280;30288;50.514;9.678;2023-05-16T01:52:23;98436.25;;;7.18;100.00
29903;BME280;30288;50.514;9.678;2023-05-16T01:54:32;98427.16;;;7.16;100.00
29903;BME280;30288;50.514;9.678;2023-05-16T01:56:44;98439.78;;;7.08;100.00
29903;BME280;30288;50.514;9.678;2023-05-16T01:58:57;98439.38;;;6.86;100.00
29903;BME280;30288;50.514;9.678;2023-05-16T02:01:06;98454.78;;;6.65;100.00
29903;BME280;30288;50.514;9.678;2023-05-16T02:03:12;98458.66;;;6.81;100.00
29903;BME280;30288;50.514;9.678;2023-05-16T02:05:20;98449.75;;;6.65;100.00
29903;BME280;30288;50.514;9.678;2023-05-16T02:07:26;98454.91;;;6.56;100.00
29903;BME280;30288;50.514;9.678;2023-05-16T02:09:31;98462.56;;;6.47;100.00
29903;BME280;30288;50.514;9.678;2023-05-16T02:11:37;98464.19;;;6.51;100.00
29903;BME280;30288;50.514;9.678;2023-05-16T02:13:42;98458.22;;;6.58;100.00
29903;BME280;30288;50.514;9.678;2023-05-16T02:15:50;98464.03;;;6.58;100.00
29903;BME280;30288;50.514;9.678;2023-05-16T02:17:55;98460.63;;;6.63;100.00
29903;BME280;30288;50.514;9.678;2023-05-16T02:20:01;98463.91;;;6.66;100.00
29903;BME280;30288;50.514;9.678;2023-05-16T02:22:08;98468.06;;;6.67;100.00
29903;BME280;30288;50.514;9.678;2023-05-16T02:24:13;98460.47;;;6.73;100.00
29903;BME280;30288;50.514;9.678;2023-05-16T02:26:18;98464.81;;;6.62;100.00
29903;BME280;30288;50.514;9.678;2023-05-16T02:28:24;98476.69;;;6.51;100.00
29903;BME280;30288;50.514;9.678;2023-05-16T02:30:29;98470.06;;;6.47;100.00
29903;BME280;30288;50.514;9.678;2023-05-16T02:32:37;98470.06;;;6.47;100.00
29903;BME280;30288;50.514;9.678;2023-05-16T02:34:46;98468.31;;;6.52;100.00
29903;BME280;30288;50.514;9.678;2023-05-16T02:36:51;98469.28;;;6.43;100.00
29903;BME280;30288;50.514;9.678;2023-05-16T02:38:56;98473.53;;;6.37;100.00
29903;BME280;30288;50.514;9.678;2023-05-16T02:41:02;98469.09;;;6.55;100.00
29903;BME280;30288;50.514;9.678;2023-05-16T02:43:07;98468.13;;;6.64;100.00
29903;BME280;30288;50.514;9.678;2023-05-16T02:45:13;98479.97;;;6.54;100.00
29903;BME280;30288;50.514;9.678;2023-05-16T02:47:18;98479.13;;;6.55;100.00
29903;BME280;30288;50.514;9.678;2023-05-16T02:49:26;98475.19;;;6.38;100.00
29903;BME280;30288;50.514;9.678;2023-05-16T02:51:31;98487.91;;;6.26;100.00
29903;BME280;30288;50.514;9.678;2023-05-16T02:53:36;98494.53;;;6.28;100.00
29903;BME280;30288;50.514;9.678;2023-05-16T02:55:42;98483.53;;;6.37;100.00
29903;BME280;30288;50.514;9.678;2023-05-16T02:57:47;98481.81;;;6.42;100.00
29903;BME280;30288;50.514;9.678;2023-05-16T02:59:53;98479.81;;;6.62;100.00
29903;BME280;30288;50.514;9.678;2023-05-16T03:01:58;98474.56;;;6.79;100.00
29903;BME280;30288;50.514;9.678;2023-05-16T03:04:03;98477.91;;;6.76;100.00
29903;BME280;30288;50.514;9.678;2023-05-16T03:06:11;98485.06;;;6.97;100.00
29903;BME280;30288;50.514;9.678;2023-05-16T03:08:16;98483.94;;;7.14;100.00
29903;BME280;30288;50.514;9.678;2023-05-16T03:10:22;98486.09;;;7.32;100.00
29903;BME280;30288;50.514;9.678;2023-05-16T03:12:27;98487.78;;;7.31;100.00
29903;BME280;30288;50.514;9.678;2023-05-16T03:14:32;98490.16;;;7.37;100.00
29903;BME280;30288;50.514;9.678;2023-05-16T03:16:37;98488.19;;;7.53;100.00
29903;BME280;30288;50.514;9.678;2023-05-16T03:18:45;98483.06;;;7.59;100.00
29903;BME280;30288;50.514;9.678;2023-05-16T03:20:50;98480.41;;;7.67;100.00
29903;BME280;30288;50.514;9.678;2023-05-16T03:23:00;98484.59;;;7.66;100.00
29903;BME280;30288;50.514;9.678;2023-05-16T03:25:10;98480.09;;;7.80;100.00
29903;BME280;30288;50.514;9.678;2023-05-16T03:27:15;98487.63;;;7.80;100.00
29903;BME280;30288;50.514;9.678;2023-05-16T03:29:21;98487.44;;;7.89;100.00
29903;BME280;30288;50.514;9.678;2023-05-16T03:31:27;98488.97;;;7.97;100.00
29903;BME280;30288;50.514;9.678;2023-05-16T03:33:32;98484.81;;;7.94;100.00
29903;BME280;30288;50.514;9.678;2023-05-16T03:35:38;98487.22;;;8.00;100.00
29903;BME280;30288;50.514;9.678;2023-05-16T03:37:43;98488.78;;;8.06;100.00
29903;BME280;30288;50.514;9.678;2023-05-16T03:39:51;98485.34;;;8.10;100.00
29903;BME280;30288;50.514;9.678;2023-05-16T03:41:57;98486.78;;;8.20;100.00
29903;BME280;30288;50.514;9.678;2023-05-16T03:44:03;98488.34;;;8.24;100.00
29903;BME280;30288;50.514;9.678;2023-05-16T03:46:08;98496.63;;;8.30;100.00
29903;BME280;30288;50.514;9.678;2023-05-16T03:48:13;98498.28;;;8.30;100.00
29903;BME280;30288;50.514;9.678;2023-05-16T03:50:18;98493.19;;;8.33;100.00
29903;BME280;30288;50.514;9.678;2023-05-16T03:52:24;98489.75;;;8.37;100.00
29903;BME280;30288;50.514;9.678;2023-05-16T03:54:29;98494.72;;;8.40;100.00
29903;BME280;30288;50.514;9.678;2023-05-16T03:56:37;98491.16;;;8.49;100.00
29903;BME280;30288;50.514;9.678;2023-05-16T03:58:42;98495.28;;;8.51;100.00
29903;BME280;30288;50.514;9.678;2023-05-16T04:00:48;98498.47;;;8.58;100.00
29903;BME280;30288;50.514;9.678;2023-05-16T04:02:53;98501.94;;;8.54;100.00
29903;BME280;30288;50.514;9.678;2023-05-16T04:04:58;98497.56;;;8.60;100.00
29903;BME280;30288;50.514;9.678;2023-05-16T04:07:04;98495.63;;;8.71;100.00
29903;BME280;30288;50.514;9.678;2023-05-16T04:09:10;98495.50;;;8.77;100.00
29903;BME280;30288;50.514;9.678;2023-05-16T04:11:15;98495.41;;;8.81;100.00
29903;BME280;30288;50.514;9.678;2023-05-16T04:13:22;98498.72;;;8.83;100.00
29903;BME280;30288;50.514;9.678;2023-05-16T04:15:28;98504.38;;;8.91;100.00
29903;BME280;30288;50.514;9.678;2023-05-16T04:17:33;98506.97;;;8.88;100.00
29903;BME280;30288;50.514;9.678;2023-05-16T04:19:39;98513.47;;;8.95;100.00
29903;BME280;30288;50.514;9.678;2023-05-16T04:21:44;98514.97;;;9.02;100.00
29903;BME280;30288;50.514;9.678;2023-05-16T04:23:49;98515.69;;;9.07;100.00
29903;BME280;30288;50.514;9.678;2023-05-16T04:25:54;98510.56;;;9.10;100.00
29903;BME280;30288;50.514;9.678;2023-05-16T04:28:00;98511.28;;;9.15;100.00
29903;BME280;30288;50.514;9.678;2023-05-16T04:30:10;98513.66;;;9.21;100.00
29903;BME280;30288;50.514;9.678;2023-05-16T04:32:15;98511.91;;;9.23;100.00
29903;BME280;30288;50.514;9.678;2023-05-16T04:34:21;98519.44;;;9.23;100.00
29903;BME280;30288;50.514;9.678;2023-05-16T04:36:29;98520.63;;;9.10;100.00
29903;BME280;30288;50.514;9.678;2023-05-16T04:38:34;98516.31;;;9.15;100.00
29903;BME280;30288;50.514;9.678;2023-05-16T04:40:40;98519.44;;;9.23;100.00
29903;BME280;30288;50.514;9.678;2023-05-16T04:42:46;98521.00;;;9.27;100.00
29903;BME280;30288;50.514;9.678;2023-05-16T04:44:52;98524.41;;;9.26;100.00
29903;BME280;30288;50.514;9.678;2023-05-16T04:47:00;98523.41;;;9.32;100.00
29903;BME280;30288;50.514;9.678;2023-05-16T04:49:05;98532.47;;;9.37;100.00
29903;BME280;30288;50.514;9.678;2023-05-16T04:51:12;98531.59;;;9.40;100.00
29903;BME280;30288;50.514;9.678;2023-05-16T04:53:17;98535.69;;;9.42;100.00
29903;BME280;30288;50.514;9.678;2023-05-16T04:55:22;98537.19;;;9.49;100.00
29903;BME280;30288;50.514;9.678;2023-05-16T04:57:28;98539.63;;;9.51;100.00
29903;BME280;30288;50.514;9.678;2023-05-16T04:59:33;98543.44;;;9.65;100.00
29903;BME280;30288;50.514;9.678;2023-05-16T05:01:39;98540.16;;;9.63;100.00
29903;BME280;30288;50.514;9.678;2023-05-16T05:03:47;98546.66;;;9.71;100.00
29903;BME280;30288;50.514;9.678;2023-05-16T05:05:52;98548.16;;;9.78;100.00
29903;BME280;30288;50.514;9.678;2023-05-16T05:07:58;98547.22;;;9.80;100.00
29903;BME280;30288;50.514;9.678;2023-05-16T05:10:04;98544.56;;;9.85;100.00
29903;BME280;30288;50.514;9.678;2023-05-16T05:12:10;98549.53;;;9.88;100.00
29903;BME280;30288;50.514;9.678;2023-05-16T05:14:15;98546.66;;;10.00;100.00
29903;BME280;30288;50.514;9.678;2023-05-16T05:16:21;98552.41;;;10.05;100.00
29903;BME280;30288;50.514;9.678;2023-05-16T05:18:26;98554.91;;;10.05;100.00
29903;BME280;30288;50.514;9.678;2023-05-16T05:20:34;98549.00;;;10.06;100.00
29903;BME280;30288;50.514;9.678;2023-05-16T05:22:40;98559.84;;;10.08;100.00
29903;BME280;30288;50.514;9.678;2023-05-16T05:24:45;98565.66;;;10.10;100.00
29903;BME280;30288;50.514;9.678;2023-05-16T05:26:50;98565.66;;;10.10;100.00
29903;BME280;30288;50.514;9.678;2023-05-16T05:28:55;98565.56;;;10.13;100.00
29903;BME280;30288;50.514;9.678;2023-05-16T05:31:07;98575.63;;;10.13;100.00
29903;BME280;30288;50.514;9.678;2023-05-16T05:33:15;98567.91;;;10.21;100.00
29903;BME280;30288;50.514;9.678;2023-05-16T05:35:21;98572.19;;;10.17;100.00
29903;BME280;30288;50.514;9.678;2023-05-16T05:37:29;98572.16;;;10.19;100.00
29903;BME280;30288;50.514;9.678;2023-05-16T05:39:35;98571.28;;;10.20;100.00
29903;BME280;30288;50.514;9.678;2023-05-16T05:41:41;98566.25;;;10.20;100.00
29903;BME280;30288;50.514;9.678;2023-05-16T05:43:46;98560.41;;;10.19;100.00
29903;BME280;30288;50.514;9.678;2023-05-16T05:45:51;98565.44;;;10.19;100.00
29903;BME280;30288;50.514;9.678;2023-05-16T05:47:56;98568.75;;;10.21;100.00
29903;BME280;30288;50.514;9.678;2023-05-16T05:50:03;98568.53;;;10.27;100.00
29903;BME280;30288;50.514;9.678;2023-05-16T05:52:08;98566.81;;;10.29;100.00
29903;BME280;30288;50.514;9.678;2023-05-16T05:54:16;98575.13;;;10.31;100.00
29903;BME280;30288;50.514;9.678;2023-05-16T05:56:22;98571.75;;;10.32;100.00
29903;BME280;30288;50.514;9.678;2023-05-16T05:58:28;98570.09;;;10.31;100.00
29903;BME280;30288;50.514;9.678;2023-05-16T06:00:33;98572.44;;;10.37;100.00
29903;BME280;30288;50.514;9.678;2023-05-16T06:02:38;98583.47;;;10.33;100.00
29903;BME280;30288;50.514;9.678;2023-05-16T06:04:44;98580.94;;;10.33;100.00
29903;BME280;30288;50.514;9.678;2023-05-16T06:06:50;98591.16;;;10.29;100.00
29903;BME280;30288;50.514;9.678;2023-05-16T06:08:56;98595.25;;;10.31;100.00
29903;BME280;30288;50.514;9.678;2023-05-16T06:11:03;98602.91;;;10.28;100.00
29903;BME280;30288;50.514;9.678;2023-05-16T06:13:08;98604.69;;;10.25;100.00
29903;BME280;30288;50.514;9.678;2023-05-16T06:15:14;98607.25;;;10.23;100.00
29903;BME280;30288;50.514;9.678;2023-05-16T06:17:19;98600.50;;;10.25;100.00
29903;BME280;30288;50.514;9.678;2023-05-16T06:19:25;98612.28;;;10.23;100.00
29903;BME280;30288;50.514;9.678;2023-05-16T06:21:30;98607.28;;;10.22;100.00
29903;BME280;30288;50.514;9.678;2023-05-16T06:23:36;98614.09;;;10.18;100.00
29903;BME280;30288;50.514;9.678;2023-05-16T06:25:41;98610.72;;;10.19;100.00
29903;BME280;30288;50.514;9.678;2023-05-16T06:27:49;98627.38;;;10.23;100.00
29903;BME280;30288;50.514;9.678;2023-05-16T06:29:54;98628.22;;;10.24;100.00
29903;BME280;30288;50.514;9.678;2023-05-16T06:31:59;98627.47;;;10.20;100.00
29903;BME280;30288;50.514;9.678;2023-05-16T06:34:04;98627.19;;;10.31;100.00
29903;BME280;30288;50.514;9.678;2023-05-16T06:36:09;98638.94;;;10.30;100.00
29903;BME280;30288;50.514;9.678;2023-05-16T06:38:15;98639.66;;;10.35;100.00
29903;BME280;30288;50.514;9.678;2023-05-16T06:40:20;98642.09;;;10.37;100.00
29903;BME280;30288;50.514;9.678;2023-05-16T06:42:26;98640.56;;;10.31;100.00
29903;BME280;30288;50.514;9.678;2023-05-16T06:44:34;98646.38;;;10.35;100.00
29903;BME280;30288;50.514;9.678;2023-05-16T06:46:39;98645.28;;;10.43;100.00
29903;BME280;30288;50.514;9.678;2023-05-16T06:48:44;98643.34;;;10.51;100.00
29903;BME280;30288;50.514;9.678;2023-05-16T06:50:49;98642.81;;;10.70;100.00
29903;BME280;30288;50.514;9.678;2023-05-16T06:52:55;98643.75;;;10.93;100.00
29903;BME280;30288;50.514;9.678;2023-05-16T06:55:00;98644.09;;;11.11;100.00
29903;BME280;30288;50.514;9.678;2023-05-16T06:57:06;98640.44;;;11.19;100.00
29903;BME280;30288;50.514;9.678;2023-05-16T06:59:11;98648.00;;;11.19;100.00
29903;BME280;30288;50.514;9.678;2023-05-16T07:01:19;98656.25;;;11.24;100.00
29903;BME280;30288;50.514;9.678;2023-05-16T07:03:25;98658.09;;;11.19;100.00
29903;BME280;30288;50.514;9.678;2023-05-16T07:05:30;98663.31;;;11.13;100.00
29903;BME280;30288;50.514;9.678;2023-05-16T07:07:35;98665.94;;;11.10;100.00
29903;BME280;30288;50.514;9.678;2023-05-16T07:09:40;98671.19;;;11.03;100.00
29903;BME280;30288;50.514;9.678;2023-05-16T07:11:46;98676.09;;;11.07;100.00
29903;BME280;30288;50.514;9.678;2023-05-16T07:13:51;98668.75;;;11.01;100.00
29903;BME280;30288;50.514;9.678;2023-05-16T07:15:56;98674.31;;;11.11;100.00
29903;BME280;30288;50.514;9.678;2023-05-16T07:18:04;98676.41;;;11.24;100.00
29903;BME280;30288;50.514;9.678;2023-05-16T07:20:10;98666.13;;;11.30;100.00
29903;BME280;30288;50.514;9.678;2023-05-16T07:22:15;98676.31;;;11.27;100.00
29903;BME280;30288;50.514;9.678;2023-05-16T07:24:21;98682.72;;;11.37;100.00
29903;BME280;30288;50.514;9.678;2023-05-16T07:26:26;98678.97;;;11.23;100.00
29903;BME280;30288;50.514;9.678;2023-05-16T07:28:31;98685.81;;;11.19;100.00
29903;BME280;30288;50.514;9.678;2023-05-16T07:30:36;98683.78;;;11.03;100.00
29903;BME280;30288;50.514;9.678;2023-05-16T07:32:41;98683.13;;;10.98;100.00
29903;BME280;30288;50.514;9.678;2023-05-16T07:34:50;98687.53;;;10.91;100.00
29903;BME280;30288;50.514;9.678;2023-05-16T07:36:55;98693.31;;;10.93;100.00
29903;BME280;30288;50.514;9.678;2023-05-16T07:39:00;98695.59;;;11.02;100.00
29903;BME280;30288;50.514;9.678;2023-05-16T07:41:05;98694.94;;;10.95;100.00
29903;BME280;30288;50.514;9.678;2023-05-16T07:43:10;98704.09;;;10.98;100.00
29903;BME280;30288;50.514;9.678;2023-05-16T07:45:16;98700.72;;;10.99;100.00
29903;BME280;30288;50.514;9.678;2023-05-16T07:47:21;98703.75;;;11.10;100.00
29903;BME280;30288;50.514;9.678;2023-05-16T07:49:27;98702.19;;;11.06;100.00
29903;BME280;30288;50.514;9.678;2023-05-16T07:51:34;98705.13;;;11.20;100.00
29903;BME280;30288;50.514;9.678;2023-05-16T07:53:39;98705.13;;;11.20;100.00
29903;BME280;30288;50.514;9.678;2023-05-16T07:55:45;98701.50;;;11.27;100.00
29903;BME280;30288;50.514;9.678;2023-05-16T07:57:50;98710.88;;;11.24;100.00
29903;BME280;30288;50.514;9.678;2023-05-16T07:59:55;98718.28;;;11.28;100.00
29903;BME280;30288;50.514;9.678;2023-05-16T08:02:00;98723.34;;;11.28;100.00
29903;BME280;30288;50.514;9.678;2023-05-16T08:04:06;98721.78;;;11.24;100.00
29903;BME280;30288;50.514;9.678;2023-05-16T08:06:11;98728.47;;;11.25;100.00
29903;BME280;30288;50.514;9.678;2023-05-16T08:08:19;98726.50;;;11.07;100.00
29903;BME280;30288;50.514;9.678;2023-05-16T08:10:25;98733.44;;;11.01;100.00
29903;BME280;30288;50.514;9.678;2023-05-16T08:12:30;98736.38;;;10.87;100.00
29903;BME280;30288;50.514;9.678;2023-05-16T08:14:35;98733.31;;;10.76;100.00
29903;BME280;30288;50.514;9.678;2023-05-16T08:16:40;98731.84;;;10.69;100.00
29903;BME280;30288;50.514;9.678;2023-05-16T08:18:46;98735.56;;;10.56;100.00
29903;BME280;30288;50.514;9.678;2023-05-16T08:20:51;98738.47;;;10.42;100.00
29903;BME280;30288;50.514;9.678;2023-05-16T08:22:57;98746.28;;;10.31;100.00
29903;BME280;30288;50.514;9.678;2023-05-16T08:25:06;98753.75;;;10.36;100.00
29903;BME280;30288;50.514;9.678;2023-05-16T08:27:12;98759.78;;;10.30;100.00
29903;BME280;30288;50.514;9.678;2023-05-16T08:29:17;98764.97;;;10.24;100.00
29903;BME280;30288;50.514;9.678;2023-05-16T08:31:23;98768.34;;;10.23;100.00
29903;BME280;30288;50.514;9.678;2023-05-16T08:33:28;98761.84;;;10.13;100.00
29903;BME280;30288;50.514;9.678;2023-05-16T08:35:34;98762.44;;;10.24;100.00
29903;BME280;30288;50.514;9.678;2023-05-16T08:37:39;98773.50;;;10.17;100.00
29903;BME280;30288;50.514;9.678;2023-05-16T08:39:44;98770.09;;;10.21;100.00
29903;BME280;30288;50.514;9.678;2023-05-16T08:41:52;98776.91;;;10.16;100.00
29903;BME280;30288;50.514;9.678;2023-05-16T08:43:58;98779.34;;;10.19;100.00
29903;BME280;30288;50.514;9.678;2023-05-16T08:46:06;98779.25;;;10.22;100.00
29903;BME280;30288;50.514;9.678;2023-05-16T08:48:14;98784.47;;;10.16;100.00
29903;BME280;30288;50.514;9.678;2023-05-16T08:50:20;98780.06;;;10.24;100.00
29903;BME280;30288;50.514;9.678;2023-05-16T08:52:27;98783.13;;;10.35;100.00
29903;BME280;30288;50.514;9.678;2023-05-16T08:54:32;98778.00;;;10.38;100.00
29903;BME280;30288;50.514;9.678;2023-05-16T08:56:38;98792.38;;;10.35;100.00
29903;BME280;30288;50.514;9.678;2023-05-16T08:58:48;98781.66;;;10.27;100.00
29903;BME280;30288;50.514;9.678;2023-05-16T09:00:56;98782.44;;;10.30;100.00
29903;BME280;30288;50.514;9.678;2023-05-16T09:03:05;98781.47;;;10.34;100.00
29903;BME280;30288;50.514;9.678;2023-05-16T09:05:11;98777.72;;;10.49;100.00
29903;BME280;30288;50.514;9.678;2023-05-16T09:07:17;98775.38;;;10.74;100.00
29903;BME280;30288;50.514;9.678;2023-05-16T09:09:23;98776.47;;;10.93;100.00
29903;BME280;30288;50.514;9.678;2023-05-16T09:11:28;98778.22;;;10.91;100.00
29903;BME280;30288;50.514;9.678;2023-05-16T09:13:37;98776.13;;;11.05;100.00
29903;BME280;30288;50.514;9.678;2023-05-16T09:15:45;98773.38;;;11.40;100.00
29903;BME280;30288;50.514;9.678;2023-05-16T09:17:51;98773.44;;;11.65;100.00
29903;BME280;30288;50.514;9.678;2023-05-16T09:19:56;98784.28;;;11.95;100.00
29903;BME280;30288;50.514;9.678;2023-05-16T09:22:02;98770.59;;;12.27;100.00
29903;BME280;30288;50.514;9.678;2023-05-16T09:24:08;98771.53;;;12.49;100.00
29903;BME280;30288;50.514;9.678;2023-05-16T09:26:14;98769.81;;;12.73;100.00
29903;BME280;30288;50.514;9.678;2023-05-16T09:28:19;98775.53;;;12.78;100.00
29903;BME280;30288;50.514;9.678;2023-05-16T09:30:28;98770.94;;;12.88;100.00
29903;BME280;30288;50.514;9.678;2023-05-16T09:32:43;98776.41;;;13.00;100.00
29903;BME280;30288;50.514;9.678;2023-05-16T09:34:49;98773.66;;;12.83;100.00
29903;BME280;30288;50.514;9.678;2023-05-16T09:36:55;98781.50;;;12.76;100.00
29903;BME280;30288;50.514;9.678;2023-05-16T09:39:00;98781.56;;;12.97;100.00
29903;BME280;30288;50.514;9.678;2023-05-16T09:41:06;98789.22;;;13.19;100.00
29903;BME280;30288;50.514;9.678;2023-05-16T09:43:15;98784.19;;;13.18;100.00
29903;BME280;30288;50.514;9.678;2023-05-16T09:45:21;98790.91;;;13.19;100.00
29903;BME280;30288;50.514;9.678;2023-05-16T09:47:27;98781.13;;;13.09;100.00
29903;BME280;30288;50.514;9.678;2023-05-16T09:49:36;98779.84;;;12.98;100.00
29903;BME280;30288;50.514;9.678;2023-05-16T09:51:42;98790.22;;;13.37;100.00
29903;BME280;30288;50.514;9.678;2023-05-16T09:53:47;98781.44;;;13.67;100.00
29903;BME280;30288;50.514;9.678;2023-05-16T09:55:59;98776.75;;;13.78;100.00
29903;BME280;30288;50.514;9.678;2023-05-16T09:58:05;98770.66;;;14.04;100.00
29903;BME280;30288;50.514;9.678;2023-05-16T10:00:12;98776.41;;;14.28;100.00
29903;BME280;30288;50.514;9.678;2023-05-16T10:02:18;98777.56;;;14.41;100.00
29903;BME280;30288;50.514;9.678;2023-05-16T10:04:24;98776.81;;;14.39;100.00
29903;BME280;30288;50.514;9.678;2023-05-16T10:06:32;98784.53;;;14.36;100.00
29903;BME280;30288;50.514;9.678;2023-05-16T10:08:41;98778.22;;;14.44;100.00
29903;BME280;30288;50.514;9.678;2023-05-16T10:10:51;98777.28;;;14.67;100.00
29903;BME280;30288;50.514;9.678;2023-05-16T10:12:58;98785.69;;;15.24;100.00
29903;BME280;30288;50.514;9.678;2023-05-16T10:15:05;98781.19;;;15.84;100.00
29903;BME280;30288;50.514;9.678;2023-05-16T10:17:13;98781.81;;;16.06;100.00
29903;BME280;30288;50.514;9.678;2023-05-16T10:19:20;98784.84;;;15.95;100.00
29903;BME280;30288;50.514;9.678;2023-05-16T10:21:27;98796.25;;;15.33;100.00
29903;BME280;30288;50.514;9.678;2023-05-16T10:23:38;98790.28;;;15.53;100.00
29903;BME280;30288;50.514;9.678;2023-05-16T10:25:47;98794.19;;;15.23;100.00
29903;BME280;30288;50.514;9.678;2023-05-16T10:27:53;98790.50;;;15.30;100.00
29903;BME280;30288;50.514;9.678;2023-05-16T10:30:00;98791.41;;;15.46;100.00
29903;BME280;30288;50.514;9.678;2023-05-16T10:32:07;98783.84;;;15.63;100.00
29903;BME280;30288;50.514;9.678;2023-05-16T10:34:15;98786.50;;;15.43;100.00
29903;BME280;30288;50.514;9.678;2023-05-16T10:36:21;98782.19;;;15.08;100.00
29903;BME280;30288;50.514;9.678;2023-05-16T10:38:27;98780.34;;;14.93;100.00
29903;BME280;30288;50.514;9.678;2023-05-16T10:40:38;98784.31;;;14.79;100.00
29903;BME280;30288;50.514;9.678;2023-05-16T10:42:54;98785.28;;;15.33;100.00
29903;BME280;30288;50.514;9.678;2023-05-16T10:45:14;98789.97;;;15.59;100.00
29903;BME280;30288;50.514;9.678;2023-05-16T10:47:21;98787.69;;;15.72;100.00
29903;BME280;30288;50.514;9.678;2023-05-16T10:49:26;98791.50;;;15.81;100.00
29903;BME280;30288;50.514;9.678;2023-05-16T10:51:35;98796.59;;;16.15;100.00
29903;BME280;30288;50.514;9.678;2023-05-16T10:53:43;98794.41;;;16.07;100.00
29903;BME280;30288;50.514;9.678;2023-05-16T10:56:09;98788.50;;;15.72;100.00
29903;BME280;30288;50.514;9.678;2023-05-16T10:58:22;98800.59;;;15.67;100.00
29903;BME280;30288;50.514;9.678;2023-05-16T11:00:29;98799.81;;;15.29;100.00
29903;BME280;30288;50.514;9.678;2023-05-16T11:02:40;98792.41;;;15.25;100.00
29903;BME280;30288;50.514;9.678;2023-05-16T11:04:47;98795.69;;;15.27;100.00
29903;BME280;30288;50.514;9.678;2023-05-16T11:06:54;98785.13;;;15.17;100.00